createdAt,value
2022-12-28T00:00:21.344Z,83.56
2022-12-28T00:01:43.220Z,83.55
2022-12-28T00:03:05.032Z,83.94
2022-12-28T00:04:26.919Z,83.58
2022-12-28T00:05:48.896Z,84.06
2022-12-28T00:07:10.915Z,84.24
2022-12-28T00:08:33.386Z,83.72
2022-12-28T00:09:55.353Z,84.00
2022-12-28T00:11:28.397Z,83.91
2022-12-28T00:12:52.918Z,83.94
2022-12-28T00:14:14.859Z,83.12
2022-12-28T00:15:38.250Z,83.28
2022-12-28T00:17:00.152Z,83.29
2022-12-28T00:18:21.979Z,83.12
2022-12-28T00:19:44.137Z,82.02
2022-12-28T00:21:06.280Z,81.41
2022-12-28T00:22:28.528Z,81.26
2022-12-28T00:23:52.492Z,81.52
2022-12-28T00:25:14.485Z,81.43
2022-12-28T00:26:36.747Z,81.39
2022-12-28T00:27:58.612Z,80.65
2022-12-28T00:29:20.579Z,81.20
2022-12-28T00:30:42.383Z,81.57
2022-12-28T00:32:04.400Z,80.97
2022-12-28T00:33:26.000Z,81.22
2022-12-28T00:34:47.730Z,81.51
2022-12-28T00:36:12.807Z,82.02
2022-12-28T00:37:34.639Z,83.17
2022-12-28T00:38:59.347Z,83.19
2022-12-28T00:40:24.103Z,83.97
2022-12-28T00:41:46.575Z,83.64
2022-12-28T00:43:08.318Z,83.48
2022-12-28T00:44:30.110Z,83.08
2022-12-28T00:45:51.949Z,83.21
2022-12-28T00:47:13.997Z,83.64
2022-12-28T00:48:35.719Z,83.76
2022-12-28T00:49:57.715Z,84.11
2022-12-28T00:51:20.912Z,84.09
2022-12-28T00:52:42.627Z,83.64
2022-12-28T00:54:04.535Z,84.00
2022-12-28T00:55:26.293Z,84.13
2022-12-28T00:56:48.154Z,84.08
2022-12-28T00:58:10.437Z,84.28
2022-12-28T00:59:32.058Z,83.62
2022-12-28T01:00:54.844Z,84.60
2022-12-28T01:02:16.741Z,84.63
2022-12-28T01:03:38.329Z,84.16
2022-12-28T01:05:00.363Z,84.56
2022-12-28T01:06:22.487Z,85.17
2022-12-28T01:07:44.253Z,84.57
2022-12-28T01:09:06.437Z,83.92
2022-12-28T01:10:28.217Z,84.30
2022-12-28T01:11:52.103Z,83.55
2022-12-28T01:13:13.748Z,83.89
2022-12-28T01:14:35.755Z,83.88
2022-12-28T01:15:57.441Z,84.01
2022-12-28T01:17:19.246Z,84.29
2022-12-28T01:18:41.725Z,84.59
2022-12-28T01:20:03.972Z,84.42
2022-12-28T01:21:28.974Z,83.76
2022-12-28T01:22:50.798Z,83.82
2022-12-28T01:24:12.737Z,84.75
2022-12-28T01:25:34.977Z,83.89
2022-12-28T01:26:56.835Z,83.68
2022-12-28T01:28:18.864Z,84.52
2022-12-28T01:29:40.852Z,83.53
2022-12-28T01:31:17.478Z,83.76
2022-12-28T01:32:39.405Z,83.77
2022-12-28T01:34:02.978Z,83.63
2022-12-28T01:35:24.665Z,84.19
2022-12-28T01:36:47.179Z,84.47
2022-12-28T01:38:09.099Z,84.68
2022-12-28T01:39:31.678Z,84.39
2022-12-28T01:40:53.122Z,83.58
2022-12-28T01:42:20.025Z,83.83
2022-12-28T01:43:45.844Z,84.01
2022-12-28T01:45:21.055Z,83.54
2022-12-28T01:46:57.275Z,83.15
2022-12-28T01:48:25.325Z,83.70
2022-12-28T01:50:12.868Z,84.18
2022-12-28T01:51:46.883Z,84.56
2022-12-28T01:53:08.622Z,84.03
2022-12-28T01:54:44.208Z,84.53
2022-12-28T01:56:06.646Z,83.93
2022-12-28T01:57:36.220Z,83.67
2022-12-28T01:58:58.926Z,83.61
2022-12-28T02:00:20.819Z,84.43
2022-12-28T02:01:42.674Z,83.85
2022-12-28T02:03:15.291Z,84.83
2022-12-28T02:04:37.377Z,84.40
2022-12-28T02:06:01.968Z,84.39
2022-12-28T02:07:44.853Z,84.15
2022-12-28T02:09:29.405Z,84.68
2022-12-28T02:10:53.209Z,84.36
2022-12-28T02:12:17.162Z,85.11
2022-12-28T02:13:39.820Z,84.25
2022-12-28T02:15:03.237Z,85.26
2022-12-28T02:16:25.414Z,85.47
2022-12-28T02:17:47.186Z,84.57
2022-12-28T02:19:13.335Z,85.31
2022-12-28T02:21:14.891Z,85.37
2022-12-28T02:22:54.705Z,85.26
2022-12-28T02:24:44.015Z,85.35
2022-12-28T02:26:17.712Z,85.00
2022-12-28T02:28:08.358Z,84.82
2022-12-28T02:29:35.048Z,84.50
2022-12-28T02:31:07.266Z,83.81
2022-12-28T02:32:49.708Z,84.67
2022-12-28T02:34:33.907Z,84.16
2022-12-28T02:36:01.411Z,83.75
2022-12-28T02:37:34.738Z,84.54
2022-12-28T02:39:02.974Z,84.97
2022-12-28T02:40:34.138Z,84.81
2022-12-28T02:41:57.474Z,84.79
2022-12-28T02:43:19.326Z,84.55
2022-12-28T02:44:59.268Z,84.32
2022-12-28T02:46:43.808Z,84.01
2022-12-28T02:48:25.985Z,84.25
2022-12-28T02:50:08.004Z,85.16
2022-12-28T02:51:49.841Z,85.10
2022-12-28T02:53:46.335Z,85.30
2022-12-28T02:55:38.213Z,85.19
2022-12-28T02:57:28.822Z,84.52
2022-12-28T02:59:02.846Z,85.64
2022-12-28T03:00:32.381Z,85.13
2022-12-28T03:02:12.870Z,85.07
2022-12-28T03:03:42.579Z,84.66
2022-12-28T03:05:17.767Z,85.40
2022-12-28T03:07:55.067Z,84.58
2022-12-28T03:09:22.512Z,86.01
2022-12-28T03:10:52.322Z,85.18
2022-12-28T03:13:01.558Z,85.86
2022-12-28T03:14:41.506Z,85.83
2022-12-28T03:16:12.680Z,86.04
2022-12-28T03:17:57.142Z,85.01
2022-12-28T03:19:39.525Z,84.90
2022-12-28T03:21:26.987Z,85.72
2022-12-28T03:23:10.871Z,85.86
2022-12-28T03:24:54.158Z,85.42
2022-12-28T03:26:40.362Z,84.63
2022-12-28T03:28:24.614Z,85.44
2022-12-28T03:30:13.860Z,85.75
2022-12-28T03:31:37.166Z,85.96
2022-12-28T03:33:04.367Z,85.91
2022-12-28T03:34:26.516Z,86.50
2022-12-28T03:36:12.620Z,86.13
2022-12-28T03:37:52.588Z,85.75
2022-12-28T03:39:14.340Z,85.26
2022-12-28T03:40:44.508Z,85.08
2022-12-28T03:42:40.503Z,85.05
2022-12-28T03:44:23.433Z,85.83
2022-12-28T03:46:01.417Z,85.54
2022-12-28T03:47:27.741Z,84.95
2022-12-28T03:48:51.299Z,85.24
2022-12-28T03:50:14.253Z,84.80
2022-12-28T03:51:36.669Z,85.14
2022-12-28T03:53:06.833Z,84.57
2022-12-28T03:54:28.852Z,85.59
2022-12-28T03:55:51.307Z,85.91
2022-12-28T03:57:17.043Z,86.04
2022-12-28T03:58:40.701Z,85.70
2022-12-28T04:00:03.979Z,85.38
2022-12-28T04:01:37.679Z,85.47
2022-12-28T04:02:59.702Z,85.60
2022-12-28T04:04:21.740Z,85.88
2022-12-28T04:05:44.891Z,85.69
2022-12-28T04:07:06.697Z,85.05
2022-12-28T04:08:29.215Z,85.87
2022-12-28T04:09:52.306Z,85.21
2022-12-28T04:11:14.859Z,86.06
2022-12-28T04:12:40.092Z,85.31
2022-12-28T04:14:18.636Z,85.56
2022-12-28T04:15:40.837Z,85.19
2022-12-28T04:17:02.671Z,85.37
2022-12-28T04:18:25.521Z,85.27
2022-12-28T04:19:47.408Z,85.34
2022-12-28T04:21:11.320Z,85.74
2022-12-28T04:22:35.079Z,84.90
2022-12-28T04:23:56.889Z,84.74
2022-12-28T04:25:19.067Z,85.12
2022-12-28T04:26:40.818Z,85.28
2022-12-28T04:28:04.264Z,85.51
2022-12-28T04:29:55.021Z,85.45
2022-12-28T04:31:18.506Z,85.53
2022-12-28T04:32:46.806Z,85.07
2022-12-28T04:34:08.832Z,84.91
2022-12-28T04:35:34.402Z,85.20
2022-12-28T04:36:56.221Z,85.34
2022-12-28T04:38:19.017Z,85.23
2022-12-28T04:39:55.891Z,84.95
2022-12-28T04:41:19.018Z,85.32
2022-12-28T04:42:40.895Z,85.39
2022-12-28T04:44:03.127Z,86.14
2022-12-28T04:45:25.041Z,86.08
2022-12-28T04:46:47.146Z,86.04
2022-12-28T04:48:08.972Z,85.37
2022-12-28T04:49:30.983Z,85.93
2022-12-28T04:50:53.639Z,85.42
2022-12-28T04:52:15.298Z,85.75
2022-12-28T04:53:41.635Z,86.02
2022-12-28T04:55:03.573Z,86.19
2022-12-28T04:56:26.847Z,85.53
2022-12-28T04:57:48.521Z,85.56
2022-12-28T04:59:10.571Z,86.32
2022-12-28T05:00:32.571Z,85.77
2022-12-28T05:01:54.424Z,85.67
2022-12-28T05:03:16.445Z,85.61
2022-12-28T05:04:38.281Z,85.75
2022-12-28T05:06:02.435Z,85.35
2022-12-28T05:07:23.991Z,86.54
2022-12-28T05:08:46.753Z,86.64
2022-12-28T05:10:09.025Z,86.30
2022-12-28T05:11:32.048Z,86.51
2022-12-28T05:12:55.527Z,87.08
2022-12-28T05:14:17.650Z,87.69
2022-12-28T05:15:39.280Z,88.68
2022-12-28T05:17:01.226Z,89.10
2022-12-28T05:18:23.047Z,88.73
2022-12-28T05:19:44.925Z,88.27
2022-12-28T05:21:06.773Z,88.78
2022-12-28T05:22:29.065Z,88.21
2022-12-28T05:23:52.229Z,87.69
2022-12-28T05:25:13.936Z,88.81
2022-12-28T05:26:36.159Z,87.82
2022-12-28T05:27:57.881Z,87.90
2022-12-28T05:29:19.786Z,87.59
2022-12-28T05:30:41.646Z,87.11
2022-12-28T05:32:03.657Z,86.88
2022-12-28T05:33:25.384Z,87.17
2022-12-28T05:34:47.256Z,87.34
2022-12-28T05:36:21.604Z,86.77
2022-12-28T05:37:43.173Z,87.22
2022-12-28T05:39:05.565Z,86.41
2022-12-28T05:40:27.365Z,87.05
2022-12-28T05:41:49.301Z,86.16
2022-12-28T05:43:11.305Z,87.27
2022-12-28T05:44:33.231Z,86.48
2022-12-28T05:45:59.819Z,86.37
2022-12-28T05:47:21.433Z,86.54
2022-12-28T05:48:43.872Z,86.50
2022-12-28T05:50:06.151Z,86.73
2022-12-28T05:51:32.769Z,86.43
2022-12-28T05:52:54.480Z,85.97
2022-12-28T05:54:16.088Z,86.10
2022-12-28T05:55:38.511Z,86.18
2022-12-28T05:57:00.520Z,86.11
2022-12-28T05:58:22.495Z,86.73
2022-12-28T05:59:44.427Z,86.74
2022-12-28T06:01:10.765Z,86.20
2022-12-28T06:02:32.975Z,86.67
2022-12-28T06:04:01.613Z,87.03
2022-12-28T06:05:23.407Z,86.65
2022-12-28T06:06:47.284Z,86.92
2022-12-28T06:08:08.923Z,86.43
2022-12-28T06:09:30.995Z,86.70
2022-12-28T06:10:52.896Z,86.30
2022-12-28T06:12:14.509Z,87.13
2022-12-28T06:13:37.908Z,86.69
2022-12-28T06:15:00.002Z,85.79
2022-12-28T06:16:22.696Z,86.48
2022-12-28T06:17:44.404Z,86.95
2022-12-28T06:19:11.145Z,86.45
2022-12-28T06:20:33.099Z,85.97
2022-12-28T06:21:54.990Z,86.58
2022-12-28T06:23:16.827Z,86.91
2022-12-28T06:24:38.673Z,86.54
2022-12-28T06:26:02.027Z,86.05
2022-12-28T06:27:23.556Z,86.38
2022-12-28T06:28:46.540Z,86.23
2022-12-28T06:30:09.430Z,86.89
2022-12-28T06:31:33.889Z,86.87
2022-12-28T06:32:57.414Z,86.70
2022-12-28T06:34:19.238Z,87.00
2022-12-28T06:35:44.011Z,86.50
2022-12-28T06:37:05.963Z,86.75
2022-12-28T06:38:29.694Z,86.41
2022-12-28T06:39:51.404Z,85.82
2022-12-28T06:41:15.107Z,86.46
2022-12-28T06:42:37.264Z,86.46
2022-12-28T06:43:59.591Z,86.72
2022-12-28T06:45:21.597Z,86.66
2022-12-28T06:46:43.339Z,87.21
2022-12-28T06:48:05.337Z,86.46
2022-12-28T06:49:27.925Z,87.01
2022-12-28T06:50:59.877Z,85.74
2022-12-28T06:52:21.943Z,86.57
2022-12-28T06:53:44.987Z,85.85
2022-12-28T06:55:06.981Z,85.56
2022-12-28T06:56:32.040Z,85.93
2022-12-28T06:57:54.568Z,85.75
2022-12-28T06:59:16.274Z,85.43
2022-12-28T07:00:38.011Z,85.68
2022-12-28T07:02:00.089Z,85.44
2022-12-28T07:03:23.108Z,85.52
2022-12-28T07:04:44.844Z,85.44
2022-12-28T07:06:06.921Z,84.88
2022-12-28T07:07:29.077Z,84.07
2022-12-28T07:08:51.788Z,84.08
2022-12-28T07:10:13.831Z,83.76
2022-12-28T07:11:36.009Z,82.81
2022-12-28T07:12:58.010Z,81.98
2022-12-28T07:14:20.961Z,82.02
2022-12-28T07:15:42.599Z,81.05
2022-12-28T07:17:04.591Z,81.03
2022-12-28T07:18:26.161Z,80.73
2022-12-28T07:19:48.125Z,80.77
2022-12-28T07:21:21.536Z,80.39
2022-12-28T07:22:43.417Z,80.06
2022-12-28T07:24:06.723Z,80.17
2022-12-28T07:25:28.651Z,80.00
2022-12-28T07:26:50.604Z,79.86
2022-12-28T07:28:12.288Z,79.79
2022-12-28T07:29:34.199Z,79.61
2022-12-28T07:30:56.119Z,80.01
2022-12-28T07:32:18.045Z,79.77
2022-12-28T07:33:40.655Z,79.75
2022-12-28T07:35:02.463Z,79.85
2022-12-28T07:36:26.401Z,79.25
2022-12-28T07:37:49.834Z,79.70
2022-12-28T07:39:11.682Z,79.66
2022-12-28T07:40:33.661Z,79.45
2022-12-28T07:41:55.346Z,79.24
2022-12-28T07:43:17.293Z,79.64
2022-12-28T07:44:48.672Z,79.34
2022-12-28T07:46:12.426Z,79.90
2022-12-28T07:47:34.268Z,79.84
2022-12-28T07:49:00.637Z,79.98
2022-12-28T07:50:22.066Z,81.00
2022-12-28T07:51:43.916Z,80.27
2022-12-28T07:53:05.959Z,80.64
2022-12-28T07:54:27.930Z,80.55
2022-12-28T07:56:00.832Z,81.19
2022-12-28T07:57:23.016Z,81.33
2022-12-28T07:58:52.715Z,81.01
2022-12-28T08:00:15.236Z,80.84
2022-12-28T08:01:37.568Z,81.43
2022-12-28T08:02:59.593Z,81.42
2022-12-28T08:04:21.480Z,81.48
2022-12-28T08:05:43.589Z,82.04
2022-12-28T08:07:05.197Z,82.10
2022-12-28T08:08:27.085Z,81.86
2022-12-28T08:09:48.593Z,81.88
2022-12-28T08:11:13.564Z,81.92
2022-12-28T08:12:35.437Z,82.23
2022-12-28T08:13:58.361Z,81.94
2022-12-28T08:15:20.153Z,82.10
2022-12-28T08:16:44.406Z,81.84
2022-12-28T08:18:06.498Z,82.37
2022-12-28T08:19:28.465Z,81.82
2022-12-28T08:20:50.239Z,81.53
2022-12-28T08:22:12.133Z,81.78
2022-12-28T08:23:34.477Z,81.77
2022-12-28T08:24:56.288Z,80.99
2022-12-28T08:26:23.477Z,81.39
2022-12-28T08:27:45.075Z,81.09
2022-12-28T08:29:10.632Z,81.31
2022-12-28T08:30:32.577Z,81.20
2022-12-28T08:31:54.502Z,81.07
2022-12-28T08:33:16.524Z,80.97
2022-12-28T08:34:38.405Z,80.49
2022-12-28T08:36:00.230Z,80.39
2022-12-28T08:37:22.249Z,80.30
2022-12-28T08:38:45.550Z,80.20
2022-12-28T08:40:07.680Z,80.30
2022-12-28T08:41:30.541Z,79.28
2022-12-28T08:42:52.359Z,79.23
2022-12-28T08:44:14.566Z,79.81
2022-12-28T08:45:36.240Z,79.57
2022-12-28T08:46:58.471Z,79.61
2022-12-28T08:48:20.209Z,79.34
2022-12-28T08:49:44.492Z,79.58
2022-12-28T08:51:15.354Z,79.84
2022-12-28T08:52:37.260Z,79.45
2022-12-28T08:54:00.173Z,79.53
2022-12-28T08:55:22.336Z,78.92
2022-12-28T08:56:45.459Z,79.09
2022-12-28T08:58:07.302Z,78.98
2022-12-28T08:59:29.275Z,78.91
2022-12-28T09:00:51.162Z,78.62
2022-12-28T09:02:14.663Z,78.20
2022-12-28T09:03:38.749Z,77.97
2022-12-28T09:05:00.660Z,77.99
2022-12-28T09:06:29.976Z,78.17
2022-12-28T09:07:59.314Z,78.29
2022-12-28T09:09:22.067Z,78.13
2022-12-28T09:10:43.788Z,77.96
2022-12-28T09:12:07.398Z,77.58
2022-12-28T09:13:29.327Z,77.67
2022-12-28T09:14:51.243Z,77.92
2022-12-28T09:16:16.565Z,78.56
2022-12-28T09:17:38.485Z,78.49
2022-12-28T09:19:02.747Z,78.54
2022-12-28T09:20:24.834Z,79.13
2022-12-28T09:21:49.247Z,78.86
2022-12-28T09:23:11.290Z,78.78
2022-12-28T09:24:33.282Z,79.32
2022-12-28T09:25:55.424Z,79.55
2022-12-28T09:27:17.266Z,80.07
2022-12-28T09:28:40.019Z,80.08
2022-12-28T09:30:03.476Z,80.33
2022-12-28T09:31:27.998Z,80.92
2022-12-28T09:33:09.706Z,81.24
2022-12-28T09:34:37.188Z,81.30
2022-12-28T09:35:59.950Z,81.49
2022-12-28T09:37:21.688Z,81.72
2022-12-28T09:38:44.330Z,81.77
2022-12-28T09:40:06.957Z,82.02
2022-12-28T09:41:40.683Z,82.47
2022-12-28T09:43:02.589Z,82.75
2022-12-28T09:44:42.835Z,82.22
2022-12-28T09:46:04.496Z,82.43
2022-12-28T09:47:32.345Z,82.51
2022-12-28T09:48:57.523Z,82.57
2022-12-28T09:50:19.254Z,82.31
2022-12-28T09:51:57.268Z,83.06
2022-12-28T09:53:23.697Z,83.02
2022-12-28T09:54:45.719Z,83.23
2022-12-28T09:56:28.930Z,83.28
2022-12-28T09:57:56.837Z,83.61
2022-12-28T09:59:25.109Z,83.50
2022-12-28T10:00:56.594Z,83.67
2022-12-28T10:02:26.122Z,83.70
2022-12-28T10:03:48.579Z,83.93
2022-12-28T10:05:12.727Z,83.03
2022-12-28T10:06:36.824Z,82.81
2022-12-28T10:08:00.128Z,83.19
2022-12-28T10:09:33.342Z,82.92
2022-12-28T10:10:59.566Z,82.75
2022-12-28T10:12:24.694Z,83.47
2022-12-28T10:13:56.538Z,83.22
2022-12-28T10:15:19.457Z,83.15
2022-12-28T10:16:46.955Z,83.54
2022-12-28T10:18:14.050Z,83.53
2022-12-28T10:19:35.650Z,83.42
2022-12-28T10:20:57.911Z,83.75
2022-12-28T10:22:22.548Z,84.30
2022-12-28T10:24:20.773Z,84.02
2022-12-28T10:25:28.761Z,83.24
2022-12-28T10:26:50.585Z,83.72
2022-12-28T10:28:13.023Z,83.58
2022-12-28T10:29:35.342Z,83.85
2022-12-28T10:31:06.750Z,84.26
2022-12-28T10:32:48.843Z,83.92
2022-12-28T10:34:20.962Z,84.08
2022-12-28T10:35:49.527Z,84.28
2022-12-28T10:37:19.124Z,84.18
2022-12-28T10:38:47.522Z,84.37
2022-12-28T10:40:30.682Z,84.05
2022-12-28T10:41:53.604Z,83.45
2022-12-28T10:43:22.651Z,84.31
2022-12-28T10:44:48.747Z,84.70
2022-12-28T10:48:02.798Z,84.73
2022-12-28T10:49:25.902Z,84.74
2022-12-28T10:50:56.721Z,84.80
2022-12-28T10:52:20.388Z,84.16
2022-12-28T10:53:46.873Z,83.85
2022-12-28T10:55:29.820Z,83.78
2022-12-28T10:56:52.115Z,83.46
2022-12-28T10:58:29.151Z,83.85
2022-12-28T10:59:52.203Z,84.53
2022-12-28T11:01:14.070Z,84.29
2022-12-28T11:02:36.102Z,84.73
2022-12-28T11:03:21.303Z,84.77
2022-12-28T11:04:00.007Z,84.80
2022-12-28T11:05:24.156Z,84.82
2022-12-28T11:07:06.310Z,84.89
2022-12-28T11:08:28.060Z,85.19
2022-12-28T11:09:50.950Z,85.27
2022-12-28T11:11:22.026Z,85.26
2022-12-28T11:12:45.605Z,85.51
2022-12-28T11:14:37.691Z,85.43
2022-12-28T11:16:00.396Z,84.97
2022-12-28T11:17:28.335Z,84.72
2022-12-28T11:18:50.672Z,84.64
2022-12-28T11:20:24.862Z,84.32
2022-12-28T11:21:47.244Z,84.42
2022-12-28T11:23:15.667Z,84.08
2022-12-28T11:24:39.694Z,85.12
2022-12-28T11:26:01.742Z,85.33
2022-12-28T11:27:24.727Z,84.52
2022-12-28T11:28:51.599Z,83.87
2022-12-28T11:30:19.265Z,84.17
2022-12-28T11:31:52.414Z,83.80
2022-12-28T11:33:43.271Z,84.22
2022-12-28T11:35:06.413Z,83.69
2022-12-28T11:36:30.611Z,83.92
2022-12-28T11:38:04.237Z,83.66
2022-12-28T11:39:26.184Z,83.49
2022-12-28T11:40:52.685Z,84.13
2022-12-28T11:42:39.450Z,84.20
2022-12-28T11:44:04.638Z,83.45
2022-12-28T11:45:53.030Z,82.40
2022-12-28T11:47:18.160Z,81.72
2022-12-28T11:48:43.062Z,82.40
2022-12-28T11:50:36.795Z,81.71
2022-12-28T11:52:16.798Z,81.76
2022-12-28T11:53:44.872Z,81.59
2022-12-28T11:55:39.914Z,81.78
2022-12-28T11:57:01.600Z,81.51
2022-12-28T11:58:29.809Z,81.50
2022-12-28T11:59:51.572Z,81.79
2022-12-28T12:01:33.640Z,80.96
2022-12-28T12:03:01.001Z,81.17
2022-12-28T12:04:34.182Z,80.83
2022-12-28T12:05:56.064Z,80.15
2022-12-28T12:07:30.637Z,79.86
2022-12-28T12:08:54.087Z,79.67
2022-12-28T12:10:30.223Z,80.17
2022-12-28T12:11:55.735Z,80.38
2022-12-28T12:13:26.811Z,81.13
2022-12-28T12:15:02.025Z,81.28
2022-12-28T12:16:32.972Z,81.46
2022-12-28T12:18:14.943Z,81.32
2022-12-28T12:19:43.416Z,81.30
2022-12-28T12:21:15.607Z,80.99
2022-12-28T12:22:52.224Z,81.11
2022-12-28T12:24:29.435Z,81.28
2022-12-28T12:25:54.457Z,81.01
2022-12-28T12:27:36.808Z,81.12
2022-12-28T12:29:06.516Z,80.76
2022-12-28T12:30:31.503Z,81.05
2022-12-28T12:32:06.432Z,80.43
2022-12-28T12:33:35.668Z,80.44
2022-12-28T12:35:04.851Z,80.55
2022-12-28T12:37:03.844Z,79.94
2022-12-28T12:38:48.667Z,79.96
2022-12-28T12:40:10.560Z,79.83
2022-12-28T12:41:58.105Z,79.21
2022-12-28T12:43:35.888Z,78.54
2022-12-28T12:45:00.148Z,79.56
2022-12-28T12:46:59.286Z,79.86
2022-12-28T12:48:56.592Z,79.94
2022-12-28T12:50:32.840Z,80.07
2022-12-28T12:52:31.866Z,80.11
2022-12-28T12:54:15.309Z,80.25
2022-12-28T12:55:49.593Z,80.12
2022-12-28T12:57:34.377Z,80.07
2022-12-28T12:59:43.451Z,80.15
2022-12-28T13:01:19.717Z,80.08
2022-12-28T13:03:18.061Z,79.95
2022-12-28T13:04:46.165Z,80.25
2022-12-28T13:06:13.529Z,80.08
2022-12-28T13:07:35.492Z,80.19
2022-12-28T13:09:05.278Z,80.23
2022-12-28T13:10:33.683Z,80.12
2022-12-28T13:11:55.970Z,80.12
2022-12-28T13:13:34.618Z,80.66
2022-12-28T13:15:09.127Z,80.70
2022-12-28T13:16:34.778Z,80.56
2022-12-28T13:18:42.951Z,80.57
2022-12-28T13:19:47.754Z,80.94
2022-12-28T13:21:20.724Z,80.87
2022-12-28T13:22:45.557Z,81.15
2022-12-28T13:24:27.261Z,81.27
2022-12-28T13:25:52.846Z,81.33
2022-12-28T13:27:20.514Z,81.58
2022-12-28T13:28:55.853Z,81.88
2022-12-28T13:30:22.939Z,81.72
2022-12-28T13:31:49.700Z,81.81
2022-12-28T13:33:22.355Z,81.88
2022-12-28T13:34:50.875Z,82.04
2022-12-28T13:36:18.222Z,82.34
2022-12-28T13:37:40.099Z,82.17
2022-12-28T13:39:12.242Z,82.37
2022-12-28T13:40:35.295Z,82.74
2022-12-28T13:42:05.883Z,82.94
2022-12-28T13:43:46.403Z,82.50
2022-12-28T13:45:14.351Z,82.70
2022-12-28T13:46:39.355Z,82.28
2022-12-28T13:48:02.280Z,82.43
2022-12-28T13:49:25.569Z,82.32
2022-12-28T13:50:47.828Z,82.31
2022-12-28T13:52:14.876Z,82.40
2022-12-28T13:53:36.979Z,82.24
2022-12-28T13:55:04.630Z,82.29
2022-12-28T13:56:28.219Z,82.19
2022-12-28T13:57:59.526Z,82.18
2022-12-28T13:59:22.418Z,82.16
2022-12-28T14:00:47.378Z,82.00
2022-12-28T14:02:16.184Z,81.86
2022-12-28T14:03:44.605Z,81.60
2022-12-28T14:05:15.415Z,81.53
2022-12-28T14:06:37.331Z,81.68
2022-12-28T14:08:00.793Z,81.83
2022-12-28T14:09:23.472Z,81.99
2022-12-28T14:10:47.864Z,81.80
2022-12-28T14:12:11.737Z,81.03
2022-12-28T14:13:35.104Z,80.92
2022-12-28T14:14:58.301Z,81.25
2022-12-28T14:16:20.239Z,81.32
2022-12-28T14:17:43.637Z,81.71
2022-12-28T14:19:07.639Z,81.96
2022-12-28T14:20:29.552Z,82.14
2022-12-28T14:21:51.562Z,82.59
2022-12-28T14:23:25.082Z,82.30
2022-12-28T14:25:00.152Z,82.47
2022-12-28T14:26:24.306Z,82.69
2022-12-28T14:27:57.182Z,82.57
2022-12-28T14:29:32.802Z,82.75
2022-12-28T14:30:55.876Z,83.06
2022-12-28T14:32:18.460Z,82.99
2022-12-28T14:33:59.304Z,83.27
2022-12-28T14:35:27.210Z,83.23
2022-12-28T14:36:51.540Z,83.59
2022-12-28T14:38:19.665Z,83.30
2022-12-28T14:39:45.485Z,83.67
2022-12-28T14:41:07.483Z,83.33
2022-12-28T14:42:30.257Z,83.35
2022-12-28T14:44:01.086Z,83.51
2022-12-28T14:46:07.252Z,83.56
2022-12-28T14:47:46.939Z,83.84
2022-12-28T14:49:27.507Z,83.92
2022-12-28T14:50:59.398Z,83.71
2022-12-28T14:52:21.041Z,83.81
2022-12-28T14:53:43.851Z,84.10
2022-12-28T14:55:22.059Z,83.94
2022-12-28T14:56:46.825Z,83.95
2022-12-28T14:58:19.767Z,83.79
2022-12-28T14:59:47.944Z,83.60
2022-12-28T15:01:10.047Z,83.50
2022-12-28T15:02:41.249Z,83.61
2022-12-28T15:04:05.119Z,83.85
2022-12-28T15:05:43.964Z,83.84
2022-12-28T15:07:10.468Z,83.49
2022-12-28T15:08:32.471Z,83.47
2022-12-28T15:09:54.518Z,83.31
2022-12-28T15:11:19.308Z,83.77
2022-12-28T15:12:40.879Z,83.93
2022-12-28T15:14:03.155Z,84.07
2022-12-28T15:15:25.014Z,84.63
2022-12-28T15:16:47.103Z,84.44
2022-12-28T15:18:08.973Z,84.28
2022-12-28T15:19:30.592Z,84.14
2022-12-28T15:20:52.961Z,83.91
2022-12-28T15:22:15.009Z,83.74
2022-12-28T15:23:36.800Z,83.58
2022-12-28T15:24:58.785Z,83.59
2022-12-28T15:26:23.433Z,83.83
2022-12-28T15:27:48.867Z,83.56
2022-12-28T15:29:10.655Z,83.48
2022-12-28T15:30:32.550Z,83.28
2022-12-28T15:31:54.396Z,83.14
2022-12-28T15:33:17.309Z,83.29
2022-12-28T15:34:38.972Z,83.77
2022-12-28T15:36:16.767Z,83.87
2022-12-28T15:37:39.745Z,84.04
2022-12-28T15:39:02.688Z,83.79
2022-12-28T15:40:24.289Z,84.39
2022-12-28T15:41:46.156Z,84.14
2022-12-28T15:43:08.016Z,84.25
2022-12-28T15:44:30.243Z,84.27
2022-12-28T15:45:59.637Z,84.21
2022-12-28T15:47:22.227Z,83.85
2022-12-28T15:48:47.530Z,83.93
2022-12-28T15:50:10.225Z,84.51
2022-12-28T15:51:32.284Z,84.07
2022-12-28T15:52:54.191Z,84.26
2022-12-28T15:54:15.867Z,84.69
2022-12-28T15:55:37.775Z,84.33
2022-12-28T15:56:59.604Z,84.67
2022-12-28T15:58:21.464Z,83.92
2022-12-28T15:59:43.266Z,84.67
2022-12-28T16:01:05.249Z,84.63
2022-12-28T16:02:30.126Z,84.55
2022-12-28T16:03:53.699Z,84.44
2022-12-28T16:05:15.434Z,84.96
2022-12-28T16:06:43.922Z,84.76
2022-12-28T16:08:06.375Z,84.75
2022-12-28T16:09:28.357Z,84.30
2022-12-28T16:10:50.533Z,84.53
2022-12-28T16:12:17.388Z,84.11
2022-12-28T16:13:39.870Z,83.62
2022-12-28T16:15:01.804Z,83.58
2022-12-28T16:16:24.289Z,84.35
2022-12-28T16:17:53.281Z,84.44
2022-12-28T16:19:19.149Z,84.27
2022-12-28T16:20:40.938Z,83.65
2022-12-28T16:22:02.688Z,83.41
2022-12-28T16:23:24.608Z,83.07
2022-12-28T16:24:46.668Z,84.02
2022-12-28T16:26:09.417Z,82.47
2022-12-28T16:27:30.982Z,82.24
2022-12-28T16:28:53.034Z,82.58
2022-12-28T16:30:15.145Z,82.82
2022-12-28T16:31:38.829Z,83.25
2022-12-28T16:33:00.767Z,83.80
2022-12-28T16:34:23.042Z,83.87
2022-12-28T16:35:46.382Z,83.94
2022-12-28T16:37:10.154Z,83.65
2022-12-28T16:38:31.777Z,84.24
2022-12-28T16:39:53.865Z,84.30
2022-12-28T16:41:15.922Z,84.24
2022-12-28T16:42:37.846Z,83.90
2022-12-28T16:44:05.635Z,84.33
2022-12-28T16:45:27.865Z,84.55
2022-12-28T16:46:50.123Z,83.31
2022-12-28T16:48:15.211Z,84.16
2022-12-28T16:49:40.596Z,84.36
2022-12-28T16:51:02.999Z,84.92
2022-12-28T16:52:24.925Z,84.35
2022-12-28T16:53:46.821Z,84.30
2022-12-28T16:55:08.895Z,83.79
2022-12-28T16:56:31.154Z,83.88
2022-12-28T16:57:52.864Z,84.16
2022-12-28T16:59:26.614Z,84.59
2022-12-28T17:00:48.668Z,84.16
2022-12-28T17:02:13.271Z,83.99
2022-12-28T17:03:36.711Z,83.68
2022-12-28T17:04:58.487Z,84.14
2022-12-28T17:06:20.428Z,83.91
2022-12-28T17:07:42.651Z,83.66
2022-12-28T17:09:05.138Z,84.43
2022-12-28T17:10:28.330Z,84.13
2022-12-28T17:11:50.895Z,84.77
2022-12-28T17:13:12.894Z,84.19
2022-12-28T17:14:38.233Z,84.41
2022-12-28T17:16:03.274Z,83.49
2022-12-28T17:17:25.381Z,84.27
2022-12-28T17:18:46.987Z,84.01
2022-12-28T17:20:09.430Z,84.28
2022-12-28T17:21:32.873Z,83.99
2022-12-28T17:22:54.663Z,84.37
2022-12-28T17:24:16.735Z,83.80
2022-12-28T17:25:38.633Z,83.89
2022-12-28T17:27:07.241Z,83.89
2022-12-28T17:28:30.531Z,84.06
2022-12-28T17:29:52.210Z,83.69
2022-12-28T17:31:16.836Z,83.78
2022-12-28T17:32:39.774Z,84.01
2022-12-28T17:34:03.057Z,84.22
2022-12-28T17:35:24.872Z,84.26
2022-12-28T17:36:46.539Z,84.32
2022-12-28T17:38:08.566Z,84.91
2022-12-28T17:39:35.998Z,84.03
2022-12-28T17:41:06.765Z,84.14
2022-12-28T17:42:28.397Z,84.28
2022-12-28T17:43:56.064Z,84.43
2022-12-28T17:45:18.091Z,84.13
2022-12-28T17:46:42.749Z,83.99
2022-12-28T17:48:04.969Z,84.51
2022-12-28T17:49:27.128Z,83.51
2022-12-28T17:50:48.701Z,83.86
2022-12-28T17:52:10.704Z,84.41
2022-12-28T17:53:32.641Z,84.01
2022-12-28T17:54:54.873Z,84.91
2022-12-28T17:56:17.421Z,84.79
2022-12-28T17:57:39.285Z,83.50
2022-12-28T17:59:01.292Z,83.33
2022-12-28T18:00:23.376Z,83.34
2022-12-28T18:01:45.371Z,83.09
2022-12-28T18:03:07.368Z,83.01
2022-12-28T18:04:28.967Z,83.28
2022-12-28T18:05:52.191Z,84.26
2022-12-28T18:07:13.817Z,83.73
2022-12-28T18:08:35.754Z,84.64
2022-12-28T18:09:57.445Z,84.02
2022-12-28T18:11:19.569Z,84.51
2022-12-28T18:12:41.301Z,83.91
2022-12-28T18:14:03.210Z,84.36
2022-12-28T18:15:28.504Z,85.05
2022-12-28T18:16:55.805Z,84.72
2022-12-28T18:18:18.737Z,84.30
2022-12-28T18:19:40.857Z,84.59
2022-12-28T18:21:06.469Z,84.84
2022-12-28T18:22:28.679Z,85.02
2022-12-28T18:23:52.593Z,84.80
2022-12-28T18:25:14.744Z,85.31
2022-12-28T18:26:36.580Z,85.31
2022-12-28T18:27:58.458Z,85.39
2022-12-28T18:29:20.347Z,85.32
2022-12-28T18:30:42.438Z,84.87
2022-12-28T18:32:04.212Z,84.74
2022-12-28T18:33:25.997Z,84.96